Time;durP1;ratioP1;P1;durP2;ratioP2;P2;SDS_P1;SDS_P2;PMS_P1;PMS_P2;Temp;Humidity;BMP_temperature;BMP_pressure;BME280_temperature;BME280_humidity;BME280_pressure;Samples;Min_cycle;Max_cycle;Signal;HPM_P1;HPM_P2
2021/01/26 00:00:46;;;;;;;40.17;17.53;;;;;;;-0.78;100.00;100081.03;4962795;28;20058;-93
2021/01/26 00:03:15;;;;;;;40.23;16.97;;;;;;;-0.79;100.00;100085.34;4966403;28;20050;-93
2021/01/26 00:05:41;;;;;;;34.30;16.07;;;;;;;-0.78;100.00;100091.41;4977986;28;20473;-93
2021/01/26 00:08:08;;;;;;;36.47;14.87;;;;;;;-0.80;100.00;100088.78;4980648;28;20110;-93
2021/01/26 00:10:37;;;;;;;37.63;16.00;;;;;;;-0.81;100.00;100084.44;4982371;28;20112;-93
2021/01/26 00:13:09;;;;;;;34.73;17.37;;;;;;;-0.79;100.00;100089.66;4980951;28;20090;-93
2021/01/26 00:15:36;;;;;;;28.97;14.80;;;;;;;-0.83;100.00;100088.75;4967638;28;20046;-93
2021/01/26 00:18:03;;;;;;;29.40;15.57;;;;;;;-0.83;100.00;100088.75;4983432;28;20047;-92
2021/01/26 00:20:30;;;;;;;39.10;18.17;;;;;;;-0.81;100.00;100097.41;4981032;28;20042;-93
2021/01/26 00:22:58;;;;;;;38.13;17.57;;;;;;;-0.83;100.00;100106.91;4978854;28;20050;-93
2021/01/26 00:25:32;;;;;;;32.37;15.60;;;;;;;-0.85;100.00;100105.97;4975370;28;20117;-93
2021/01/26 00:27:59;;;;;;;34.13;16.40;;;;;;;-0.85;100.00;100108.56;4980302;28;20144;-93
2021/01/26 00:30:28;;;;;;;39.43;17.53;;;;;;;-0.83;100.00;100109.50;5003468;28;20050;-93
2021/01/26 00:32:58;;;;;;;35.93;16.67;;;;;;;-0.82;100.00;100116.44;4981522;28;20050;-93
2021/01/26 00:35:28;;;;;;;37.93;17.57;;;;;;;-0.80;100.00;100112.13;4980089;28;20222;-94
2021/01/26 00:37:56;;;;;;;35.00;17.07;;;;;;;-0.83;100.00;100117.28;4965750;28;20632;-93
2021/01/26 00:40:23;;;;;;;40.70;17.53;;;;;;;-0.81;100.00;100109.50;4981616;28;20050;-93
2021/01/26 00:42:52;;;;;;;35.93;16.47;;;;;;;-0.80;100.00;100122.50;5000797;28;20043;-93
2021/01/26 00:45:21;;;;;;;37.43;17.67;;;;;;;-0.77;100.00;100125.13;4979050;28;20064;-94
2021/01/26 00:47:50;;;;;;;37.33;16.93;;;;;;;-0.73;100.00;100123.47;4973253;28;20053;-94
2021/01/26 00:50:17;;;;;;;37.97;16.63;;;;;;;-0.71;100.00;100117.47;4964750;28;20077;-94
2021/01/26 00:52:44;;;;;;;40.77;18.50;;;;;;;-0.72;100.00;100118.31;4977771;28;20054;-93
2021/01/26 00:55:11;;;;;;;37.00;16.80;;;;;;;-0.68;100.00;100125.28;4966006;28;20593;-93
2021/01/26 00:57:43;;;;;;;39.77;17.97;;;;;;;-0.69;100.00;100117.47;4978234;28;20050;-93
2021/01/26 01:00:16;;;;;;;36.50;16.37;;;;;;;-0.68;100.00;100114.91;4962926;28;20038;-93
2021/01/26 01:02:42;;;;;;;40.17;17.97;;;;;;;-0.70;100.00;100121.81;4964923;28;20046;-93
2021/01/26 01:05:09;;;;;;;37.10;17.07;;;;;;;-0.68;100.00;100122.69;4977727;28;20053;-94
2021/01/26 01:07:35;;;;;;;41.77;17.93;;;;;;;-0.66;100.00;100122.75;4981057;28;20038;-93
2021/01/26 01:10:04;;;;;;;46.10;18.90;;;;;;;-0.65;100.00;100125.34;4981293;28;20505;-93
2021/01/26 01:12:33;;;;;;;38.30;18.30;;;;;;;-0.61;100.00;100121.94;4966105;28;20109;-93
2021/01/26 01:14:59;;;;;;;37.37;18.90;;;;;;;-0.65;100.00;100130.53;4995026;28;20065;-93
2021/01/26 01:17:26;;;;;;;43.03;20.23;;;;;;;-0.65;100.00;100124.47;4980941;28;20057;-93
2021/01/26 01:19:57;;;;;;;44.10;20.97;;;;;;;-0.63;100.00;100136.63;4978743;28;20050;-93
2021/01/26 01:22:23;;;;;;;44.83;21.13;;;;;;;-0.64;100.00;100132.28;4980680;28;20039;-93
2021/01/26 01:24:50;;;;;;;43.33;21.43;;;;;;;-0.64;100.00;100128.81;4980480;28;20682;-93
2021/01/26 01:27:18;;;;;;;52.03;21.87;;;;;;;-0.63;100.00;100139.22;4964582;28;20053;-92
2021/01/26 01:29:45;;;;;;;44.33;21.40;;;;;;;-0.62;100.00;100134.91;4976896;28;20038;-93
2021/01/26 01:32:11;;;;;;;45.43;21.13;;;;;;;-0.60;100.00;100125.41;4996074;28;20062;-93
2021/01/26 01:34:42;;;;;;;55.80;23.97;;;;;;;-0.61;100.00;100137.50;4993519;28;20047;-93
2021/01/26 01:37:09;;;;;;;49.00;22.13;;;;;;;-0.60;100.00;100141.84;4958241;28;20068;-93
2021/01/26 01:39:35;;;;;;;47.27;21.90;;;;;;;-0.62;100.00;100138.38;4978486;28;20097;-93
2021/01/26 01:42:06;;;;;;;56.83;26.17;;;;;;;-0.62;100.00;100140.09;4980019;28;20042;-93
2021/01/26 01:44:35;;;;;;;48.57;23.20;;;;;;;-0.64;100.00;100131.41;4997292;28;20069;-93
2021/01/26 01:47:03;;;;;;;52.23;23.43;;;;;;;-0.65;100.00;100138.31;4963978;28;20046;-93
2021/01/26 01:49:36;;;;;;;44.13;21.80;;;;;;;-0.66;100.00;100130.53;4980467;28;21608;-94
2021/01/26 01:52:04;;;;;;;53.67;24.37;;;;;;;-0.67;100.00;100132.25;4971281;28;20042;-93
2021/01/26 01:54:37;;;;;;;60.53;25.90;;;;;;;-0.65;100.00;100140.03;4980114;28;20043;-93
2021/01/26 01:57:22;;;;;;;53.38;24.25;;;;;;;-0.66;100.00;100139.19;4984573;28;20050;-93
2021/01/26 01:59:51;;;;;;;;;;;;;;;-0.65;100.00;100134.84;4984198;28;20053;-93
2021/01/26 02:02:21;;;;;;;53.70;24.33;;;;;;;-0.68;100.00;100137.38;5001585;28;19928;-94
2021/01/26 02:04:47;;;;;;;59.43;25.50;;;;;;;-0.71;100.00;100127.84;5007695;28;20054;-93
2021/01/26 02:07:14;;;;;;;55.77;26.33;;;;;;;-0.70;100.00;100144.28;5000311;28;21741;-93
2021/01/26 02:09:43;;;;;;;58.63;26.83;;;;;;;-0.72;100.00;100138.19;4967446;28;20042;-93
2021/01/26 02:12:11;;;;;;;55.50;25.07;;;;;;;-0.70;100.00;100142.56;4968934;28;20089;-94
2021/01/26 02:14:44;;;;;;;53.20;24.80;;;;;;;-0.71;100.00;100151.19;4999707;28;20081;-93
2021/01/26 02:17:16;;;;;;;51.00;25.87;;;;;;;-0.69;100.00;100149.47;4965011;28;20051;-93
2021/01/26 02:19:58;;;;;;;46.73;23.90;;;;;;;-0.68;100.00;100158.13;4984784;28;20129;-94
2021/01/26 02:22:34;;;;;;;55.20;26.80;;;;;;;-0.68;100.00;100153.81;4987824;28;20073;-94
2021/01/26 02:25:32;;;;;;;50.97;24.07;;;;;;;-0.68;100.00;100161.59;4992272;28;20129;-94
2021/01/26 02:28:30;;;;;;;57.90;25.97;;;;;;;-0.65;100.00;100156.47;4932829;28;20051;-92
2021/01/26 02:31:24;;;;;;;56.80;25.70;;;;;;;-0.68;100.00;100163.31;4965762;28;20133;-94
2021/01/26 02:34:24;;;;;;;57.72;27.52;;;;;;;-0.65;100.00;100169.44;4993520;28;20077;-93
2021/01/26 02:37:11;;;;;;;63.93;28.17;;;;;;;-0.71;100.00;100161.56;4992067;28;20066;-93
2021/01/26 02:40:26;;;;;;;57.63;28.27;;;;;;;-0.67;100.00;100172.88;5001377;28;20078;-93
2021/01/26 02:43:24;;;;;;;53.97;27.40;;;;;;;-0.70;100.00;100168.50;4956539;28;20074;-93
2021/01/26 02:46:04;;;;;;;54.53;26.60;;;;;;;-0.71;100.00;100163.28;4999664;28;20113;-93
2021/01/26 02:48:55;;;;;;;47.13;24.53;;;;;;;-0.71;100.00;100164.16;4981184;28;20097;-93
2021/01/26 02:51:33;;;;;;;62.93;27.80;;;;;;;-0.69;100.00;100165.03;4991163;28;20147;-93
2021/01/26 02:54:20;;;;;;;58.53;28.50;;;;;;;-0.75;100.00;100167.56;4985310;28;20050;-93
2021/01/26 02:56:51;;;;;;;53.10;25.67;;;;;;;-0.82;100.00;100163.09;4978687;28;20065;-93
2021/01/26 02:59:45;;;;;;;52.67;25.53;;;;;;;-0.84;100.00;100175.19;4998947;28;20104;-92
2021/01/26 03:02:20;;;;;;;51.13;27.67;;;;;;;-0.85;100.00;100169.09;4976772;28;20108;-94
2021/01/26 03:05:08;;;;;;;61.20;30.30;;;;;;;-0.88;100.00;100174.22;4979275;28;20536;-92
2021/01/26 03:07:42;;;;;;;58.93;30.17;;;;;;;-0.86;100.00;100169.94;4980435;28;20054;-94
2021/01/26 03:10:14;;;;;;;52.97;26.20;;;;;;;-0.89;100.00;100184.59;4985600;28;20459;-93
2021/01/26 03:12:43;;;;;;;55.67;28.60;;;;;;;-0.92;100.00;100176.75;4981230;28;20105;-94
2021/01/26 03:15:16;;;;;;;55.70;28.93;;;;;;;-0.89;100.00;100182.00;4986352;28;20066;-93
2021/01/26 03:17:47;;;;;;;56.23;27.43;;;;;;;-0.86;100.00;100187.22;4970001;28;20038;-93
2021/01/26 03:20:26;;;;;;;56.80;27.43;;;;;;;-0.90;100.00;100185.44;4986736;28;20369;-93
2021/01/26 03:22:56;;;;;;;56.10;28.57;;;;;;;-0.94;100.00;100178.44;4979192;28;20081;-93
2021/01/26 03:25:29;;;;;;;50.10;27.90;;;;;;;-1.02;100.00;100175.69;4968444;28;20047;-93
2021/01/26 03:27:59;;;;;;;56.50;27.43;;;;;;;-1.06;100.00;100183.41;4979742;28;20248;-93
2021/01/26 03:30:36;;;;;;;65.77;29.53;;;;;;;-1.08;100.00;100179.91;4978391;28;20038;-93
2021/01/26 03:33:14;;;;;;;53.70;29.37;;;;;;;-1.10;100.00;100179.88;4993269;28;20114;-93
2021/01/26 03:35:45;;;;;;;58.07;28.03;;;;;;;-1.18;100.00;100177.16;4976983;28;20046;-93
2021/01/26 03:38:17;;;;;;;69.47;30.37;;;;;;;-1.20;100.00;100176.22;4964453;28;20046;-93
2021/01/26 03:40:51;;;;;;;62.00;30.30;;;;;;;-1.20;100.00;100183.13;4964502;28;20054;-93
2021/01/26 03:43:22;;;;;;;52.90;27.42;;;;;;;-1.23;100.00;100189.16;4965551;28;20042;-93
2021/01/26 03:46:06;;;;;;;52.57;27.67;;;;;;;-1.27;100.00;100192.50;4993330;28;20054;-93
2021/01/26 03:48:48;;;;;;;54.83;28.42;;;;;;;-1.29;100.00;100196.78;4964377;28;21185;-94
2021/01/26 03:51:39;;;;;;;56.43;28.03;;;;;;;-1.37;100.00;100189.72;4990417;28;20376;-93
2021/01/26 03:54:17;;;;;;;54.90;28.37;;;;;;;-1.46;100.00;100191.28;4989794;28;20061;-93
2021/01/26 03:56:49;;;;;;;49.53;26.40;;;;;;;-1.57;100.00;100200.56;4974696;28;20046;-93
2021/01/26 03:59:32;;;;;;;52.07;26.60;;;;;;;-1.67;100.00;100187.38;4978466;28;20441;-93
2021/01/26 04:02:18;;;;;;;50.40;25.83;;;;;;;-1.78;100.00;100190.59;4979884;28;20046;-92
2021/01/26 04:04:51;;;;;;;50.93;26.23;;;;;;;-1.83;100.00;100191.34;4982746;28;20054;-93
2021/01/26 04:07:27;;;;;;;49.70;26.00;;;;;;;-1.87;100.00;100189.53;4964194;28;20050;-93
2021/01/26 04:10:05;;;;;;;51.57;26.90;;;;;;;-1.96;100.00;100190.19;4972993;28;20089;-93
2021/01/26 04:12:35;;;;;;;50.30;25.73;;;;;;;-2.06;100.00;100178.75;4975172;28;20064;-93
2021/01/26 04:15:18;;;;;;;44.57;24.00;;;;;;;-2.16;100.00;100188.88;4975480;28;20145;-93
2021/01/26 04:17:51;;;;;;;48.47;24.60;;;;;;;-2.21;100.00;100193.06;4975940;28;20814;-93
2021/01/26 04:20:22;;;;;;;45.53;24.83;;;;;;;-2.28;100.00;100192.91;4974916;28;20050;-92
2021/01/26 04:22:56;;;;;;;49.17;26.17;;;;;;;-2.30;100.00;100196.31;4976293;28;20060;-93
2021/01/26 04:25:34;;;;;;;52.90;27.40;;;;;;;-2.31;100.00;100198.03;4960101;28;20038;-94
2021/01/26 04:28:34;;;;;;;52.23;25.87;;;;;;;-2.37;100.00;100197.88;4968249;28;20050;-93
2021/01/26 04:31:01;;;;;;;47.03;24.80;;;;;;;-2.44;100.00;100193.38;4979951;28;20080;-93
2021/01/26 04:33:30;;;;;;;47.77;23.90;;;;;;;-2.48;100.00;100196.75;4958897;28;20459;-93
2021/01/26 04:35:56;;;;;;;55.33;28.40;;;;;;;-2.39;100.00;100194.38;4959488;28;20046;-92
2021/01/26 04:38:23;;;;;;;62.17;29.20;;;;;;;-2.36;100.00;100199.63;4958253;28;20070;-93
2021/01/26 04:40:53;;;;;;;65.90;32.03;;;;;;;-2.37;100.00;100194.41;4960832;28;20050;-94
2021/01/26 04:43:53;;;;;;;62.80;31.40;;;;;;;-2.38;100.00;100195.25;4960755;28;20050;-93
2021/01/26 04:46:46;;;;;;;60.80;30.10;;;;;;;-2.41;100.00;100198.66;4976202;28;20064;-93
2021/01/26 04:49:28;;;;;;;56.57;27.67;;;;;;;-2.49;100.00;100202.75;4961576;28;20525;-94
2021/01/26 04:52:02;;;;;;;54.37;27.10;;;;;;;-2.57;100.00;100206.88;4978337;28;20054;-93
2021/01/26 04:54:47;;;;;;;51.22;27.15;;;;;;;-2.63;100.00;100204.13;4976664;28;20595;-94
2021/01/26 04:57:24;;;;;;;58.00;28.93;;;;;;;-2.64;100.00;100212.72;4976600;28;20715;-93
2021/01/26 05:00:16;;;;;;;62.07;30.37;;;;;;;-2.63;100.00;100215.34;4976018;28;20050;-93
2021/01/26 05:02:58;;;;;;;71.30;34.10;;;;;;;-2.57;100.00;100206.88;4992167;28;20050;-93
2021/01/26 05:05:26;;;;;;;65.13;32.43;;;;;;;-2.61;100.00;100205.03;4992171;28;20054;-93
2021/01/26 05:07:58;;;;;;;66.67;34.37;;;;;;;-2.62;100.00;100208.44;4992120;28;20428;-93
2021/01/26 05:10:36;;;;;;;77.87;35.87;;;;;;;-2.57;100.00;100212.03;4960690;28;20077;-92
2021/01/26 05:13:08;;;;;;;78.27;36.03;;;;;;;-2.57;100.00;100212.03;4976290;28;20050;-92
2021/01/26 05:15:38;;;;;;;69.33;35.57;;;;;;;-2.63;100.00;100215.34;4958166;28;20047;-93
2021/01/26 05:18:14;;;;;;;66.97;33.50;;;;;;;-2.63;100.00;100207.56;5043598;23;20097;-88
2021/01/26 05:20:47;;;;;;;71.03;32.10;;;;;;;-2.68;100.00;100211.78;4992556;28;20514;-88
2021/01/26 05:23:16;;;;;;;55.20;28.37;;;;;;;-2.75;100.00;100212.44;4975066;28;20037;-89
2021/01/26 05:26:01;;;;;;;73.40;34.27;;;;;;;-2.73;100.00;100203.00;4980614;28;20511;-88
2021/01/26 05:28:27;;;;;;;72.30;35.97;;;;;;;-2.73;100.00;100212.50;4974619;28;20128;-88
2021/01/26 05:31:05;;;;;;;72.70;34.27;;;;;;;-2.77;100.00;100210.69;4978395;28;20136;-89
2021/01/26 05:33:32;;;;;;;74.83;35.73;;;;;;;-2.76;100.00;100210.72;4997169;28;20073;-89
2021/01/26 05:36:02;;;;;;;90.20;42.33;;;;;;;-2.74;100.00;100221.09;4995722;28;20463;-89
2021/01/26 05:38:29;;;;;;;93.60;41.00;;;;;;;-2.75;100.00;100216.75;4978792;28;20487;-88
2021/01/26 05:40:58;;;;;;;75.90;37.83;;;;;;;-2.78;100.00;100224.41;4993245;28;20483;-89
2021/01/26 05:43:30;;;;;;;72.43;34.63;;;;;;;-2.85;100.00;100232.03;4976194;28;20075;-89
2021/01/26 05:45:59;;;;;;;77.90;35.57;;;;;;;-2.84;100.00;100220.84;4988980;28;20053;-88
2021/01/26 05:48:27;;;;;;;71.97;34.87;;;;;;;-2.88;100.00;100225.88;4975907;28;20511;-89
2021/01/26 05:51:20;;;;;;;68.77;33.07;;;;;;;-2.95;100.00;100226.53;4962394;28;20487;-88
2021/01/26 05:53:52;;;;;;;71.80;33.27;;;;;;;-2.98;100.00;100235.09;4971663;28;20052;-88
2021/01/26 05:56:18;;;;;;;63.17;31.20;;;;;;;-3.07;100.00;100231.41;4996291;28;20309;-89
2021/01/26 05:58:46;;;;;;;61.80;29.87;;;;;;;-3.15;100.00;100231.19;4979219;28;20038;-88
2021/01/26 06:01:24;;;;;;;59.03;31.40;;;;;;;-3.19;100.00;100240.56;4995782;28;20044;-89
2021/01/26 06:04:12;;;;;;;56.63;27.80;;;;;;;-3.25;100.00;100247.28;5002713;28;20042;-88
2021/01/26 06:06:58;;;;;;;59.90;28.30;;;;;;;-3.30;100.00;100252.28;4977044;28;20509;-87
2021/01/26 06:09:33;;;;;;;62.10;30.67;;;;;;;-3.32;100.00;100253.97;4976197;28;20053;-88
2021/01/26 06:12:10;;;;;;;59.20;28.73;;;;;;;-3.36;100.00;100249.56;5024199;28;20077;-88
2021/01/26 06:14:37;;;;;;;57.07;27.87;;;;;;;-3.44;100.00;100262.25;5003833;28;20045;-88
2021/01/26 06:17:05;;;;;;;65.13;31.40;;;;;;;-3.44;100.00;100257.06;4994582;28;20057;-88
2021/01/26 06:19:32;;;;;;;74.37;33.17;;;;;;;-3.40;100.00;100266.66;5011243;28;20100;-89
2021/01/26 06:21:58;;;;;;;81.63;36.90;;;;;;;-3.39;100.00;100259.78;4979213;28;20037;-89
2021/01/26 06:24:27;;;;;;;67.70;31.10;;;;;;;-3.45;100.00;100260.50;4993323;28;20430;-88
2021/01/26 06:27:11;;;;;;;78.77;35.47;;;;;;;-3.37;100.00;100264.97;4974993;28;20636;-88
2021/01/26 06:29:39;;;;;;;78.13;35.15;;;;;;;-3.38;100.00;100258.94;4992095;28;20056;-88
2021/01/26 06:32:17;;;;;;;66.73;31.90;;;;;;;-3.42;100.00;100254.53;4992138;28;20049;-89
2021/01/26 06:35:05;;;;;;;95.83;40.70;;;;;;;-3.37;100.00;100262.41;4975743;28;20514;-88
2021/01/26 06:37:44;;;;;;;70.07;31.37;;;;;;;-3.44;100.00;100263.94;4994814;28;20358;-88
2021/01/26 06:40:15;;;;;;;69.13;31.87;;;;;;;-3.51;100.00;100264.59;4973009;28;20043;-89
2021/01/26 06:43:06;;;;;;;59.80;27.80;;;;;;;-3.64;100.00;100268.50;4977872;28;20049;-89
2021/01/26 06:46:25;;;;;;;54.17;24.40;;;;;;;-3.77;100.00;100263.81;4994340;28;20064;-88
2021/01/26 06:49:01;;;;;;;47.50;24.10;;;;;;;-3.87;100.00;100262.63;5002994;28;20060;-89
2021/01/26 06:51:30;;;;;;;46.97;23.73;;;;;;;-3.86;100.00;100266.13;4976343;28;20038;-88
2021/01/26 06:54:09;;;;;;;54.97;25.23;;;;;;;-3.88;100.00;100272.91;4995593;28;20050;-91
2021/01/26 06:56:35;;;;;;;60.10;30.23;;;;;;;-3.89;100.00;100279.78;4995634;28;20069;-89
2021/01/26 06:59:26;;;;;;;63.43;28.10;;;;;;;-3.90;100.00;100266.84;5010535;28;20045;-88
2021/01/26 07:02:17;;;;;;;63.03;32.23;;;;;;;-3.82;100.00;100262.78;5008625;28;20052;-88
2021/01/26 07:04:57;;;;;;;77.40;35.57;;;;;;;-3.72;100.00;100272.56;5010241;28;20042;-88
2021/01/26 07:07:54;;;;;;;72.50;33.33;;;;;;;-3.71;100.00;100282.94;4977282;28;20521;-88
2021/01/26 07:10:58;;;;;;;75.83;34.80;;;;;;;-3.69;100.00;100285.59;4977347;28;20060;-88
2021/01/26 07:13:43;;;;;;;84.03;38.47;;;;;;;-3.65;100.00;100277.09;5022718;28;20038;-89
2021/01/26 07:16:37;;;;;;;79.13;35.47;;;;;;;-3.67;100.00;100278.75;4990647;28;20046;-89
2021/01/26 07:19:28;;;;;;;75.90;35.20;;;;;;;-3.64;100.00;100280.53;4984287;28;20046;-89
2021/01/26 07:22:33;;;;;;;78.10;34.63;;;;;;;-3.62;100.00;100290.06;4993096;28;20045;-89
2021/01/26 07:25:08;;;;;;;74.95;34.83;;;;;;;-3.62;100.00;100287.50;5010081;28;20042;-89
2021/01/26 07:27:53;;;;;;;77.13;34.67;;;;;;;-3.58;100.00;100289.34;4991937;28;20293;-89
2021/01/26 07:30:32;;;;;;;75.78;33.00;;;;;;;-3.51;100.00;100287.84;5009185;28;20048;-88
2021/01/26 07:33:14;;;;;;;91.57;38.87;;;;;;;-3.41;100.00;100290.72;4992112;28;20046;-89
2021/01/26 07:36:03;;;;;;;95.77;40.77;;;;;;;-3.32;100.00;100291.84;5011240;28;20129;-89
2021/01/26 07:38:55;;;;;;;90.83;38.43;;;;;;;-3.23;100.00;100308.47;4974904;28;20035;-89
2021/01/26 07:41:31;;;;;;;91.53;39.90;;;;;;;-3.17;100.00;100311.25;4991892;28;20131;-89
2021/01/26 07:44:11;;;;;;;97.23;42.90;;;;;;;-3.13;100.00;100307.91;4976420;28;20057;-89
2021/01/26 07:46:42;;;;;;;93.73;42.00;;;;;;;-3.10;100.00;100303.69;4987817;28;20092;-89
2021/01/26 07:49:26;;;;;;;84.17;39.83;;;;;;;-3.06;100.00;100308.97;5011151;28;20037;-89
2021/01/26 07:51:56;;;;;;;78.20;39.42;;;;;;;-3.03;100.00;100311.63;4993831;28;20045;-89
2021/01/26 07:54:34;;;;;;;78.10;38.27;;;;;;;-2.98;100.00;100320.38;4991526;28;20030;-89
2021/01/26 07:57:02;;;;;;;76.07;38.73;;;;;;;-2.91;100.00;100313.69;4993921;28;20037;-88
2021/01/26 07:59:32;;;;;;;81.87;39.47;;;;;;;-2.81;100.00;100314.81;4992301;28;20070;-89
2021/01/26 08:02:00;;;;;;;75.03;38.43;;;;;;;-2.72;100.00;100323.69;4976088;28;20048;-89
2021/01/26 08:04:39;;;;;;;87.80;39.50;;;;;;;-2.59;100.00;100322.34;4993321;28;20088;-89
2021/01/26 08:07:05;;;;;;;81.67;36.80;;;;;;;-2.53;100.00;100325.06;4992497;28;20045;-88
2021/01/26 08:09:40;;;;;;;75.83;34.37;;;;;;;-2.57;100.00;100328.41;4975763;28;20042;-88
2021/01/26 08:12:11;;;;;;;74.30;35.53;;;;;;;-2.54;100.00;100331.06;5008692;28;20121;-89
2021/01/26 08:14:50;;;;;;;69.60;35.47;;;;;;;-2.58;100.00;100330.13;5008700;28;20065;-89
2021/01/26 08:17:31;;;;;;;69.67;34.70;;;;;;;-2.58;100.00;100334.44;4972742;28;20065;-89
2021/01/26 08:20:24;;;;;;;80.17;36.13;;;;;;;-2.58;100.00;100327.53;4962229;28;20041;-88
2021/01/26 08:22:58;;;;;;;81.27;36.83;;;;;;;-2.59;100.00;100330.97;4997186;28;20458;-88
2021/01/26 08:25:29;;;;;;;70.77;33.87;;;;;;;-2.60;100.00;100328.34;5008471;28;20066;-89
2021/01/26 08:28:07;;;;;;;74.87;35.40;;;;;;;-2.66;100.00;100341.09;4990591;28;20096;-88
2021/01/26 08:30:49;;;;;;;75.93;34.97;;;;;;;-2.66;100.00;100343.69;4970983;28;20042;-88
2021/01/26 08:33:17;;;;;;;75.60;33.43;;;;;;;-2.56;100.00;100343.97;5005783;28;20042;-89
2021/01/26 08:36:02;;;;;;;71.10;32.27;;;;;;;-2.45;100.00;100344.25;4992684;28;20057;-88
2021/01/26 08:38:49;;;;;;;85.97;35.58;;;;;;;-2.29;100.00;100342.94;5008950;28;20034;-88
2021/01/26 08:41:44;;;;;;;83.87;39.47;;;;;;;-2.07;100.00;100344.38;4991270;28;20050;-88
2021/01/26 08:44:20;;;;;;;76.50;35.10;;;;;;;-1.95;100.00;100347.25;5008376;28;20034;-88
2021/01/26 08:46:48;;;;;;;82.87;36.87;;;;;;;-1.86;100.00;100342.31;4991362;28;20054;-89
2021/01/26 08:49:32;;;;;;;75.97;36.43;;;;;;;-1.70;100.00;100344.44;4988827;28;20046;-89
2021/01/26 08:52:21;;;;;;;79.32;35.05;;;;;;;-1.54;100.00;100344.78;4975966;28;20042;-89
2021/01/26 08:54:49;;;;;;;63.90;31.17;;;;;;;-1.53;100.00;100351.72;4989841;28;20133;-88
2021/01/26 08:57:20;;;;;;;62.63;30.83;;;;;;;-1.44;100.00;100346.75;4978132;28;20045;-89
2021/01/26 08:59:46;;;;;;;55.40;27.87;;;;;;;-1.32;100.00;100343.56;5004862;28;20534;-89
2021/01/26 09:02:43;;;;;;;61.57;28.30;;;;;;;-1.14;100.00;100343.97;4989318;28;20162;-89
2021/01/26 09:05:11;;;;;;;52.83;27.00;;;;;;;-0.97;100.00;100336.56;5008913;28;20133;-89
2021/01/26 09:07:55;;;;;;;55.47;27.30;;;;;;;-0.79;100.00;100349.00;4981199;28;20466;-86
2021/01/26 09:10:39;;;;;;;56.07;27.60;;;;;;;-0.42;100.00;100350.59;5007841;28;20042;-86
2021/01/26 09:13:16;;;;;;;60.67;28.58;;;;;;;0.20;100.00;100362.09;4992452;28;20518;-89
2021/01/26 09:15:52;;;;;;;54.90;25.03;;;;;;;0.53;100.00;100356.56;5004382;28;20125;-89
2021/01/26 09:18:21;;;;;;;44.27;23.77;;;;;;;0.60;100.00;100362.75;4977719;28;20499;-89
2021/01/26 09:20:51;;;;;;;42.90;22.83;;;;;;;0.77;100.00;100363.00;4975559;28;20068;-89
2021/01/26 09:23:20;;;;;;;37.60;21.10;;;;;;;0.88;100.00;100371.81;4985937;28;20415;-89
2021/01/26 09:25:46;;;;;;;43.03;22.63;;;;;;;0.61;100.00;100367.09;4982840;28;20046;-90
2021/01/26 09:28:18;;;;;;;36.13;20.60;;;;;;;0.53;100.00;100363.50;4981046;28;20070;-90
2021/01/26 09:30:45;;;;;;;41.50;23.03;;;;;;;0.62;100.00;100365.34;5012915;28;20084;-89
2021/01/26 09:33:12;;;;;;;40.77;21.53;;;;;;;1.06;100.00;100372.06;4995569;28;20041;-89
2021/01/26 09:35:42;;;;;;;39.30;21.10;;;;;;;1.25;95.26;100370.56;5012579;28;20037;-90
2021/01/26 09:38:11;;;;;;;40.70;21.03;;;;;;;1.53;92.62;100374.38;4981337;28;20240;-88
2021/01/26 09:40:43;;;;;;;37.70;20.43;;;;;;;2.14;92.45;100368.91;4997804;28;20065;-90
2021/01/26 09:43:18;;;;;;;36.57;20.67;;;;;;;2.37;88.61;100374.34;5015039;28;20092;-89
2021/01/26 09:45:52;;;;;;;34.30;19.83;;;;;;;2.80;88.47;100372.91;4981291;28;20056;-90
2021/01/26 09:48:26;;;;;;;32.70;19.53;;;;;;;2.82;83.98;100379.00;4991534;28;20483;-88
2021/01/26 09:50:52;;;;;;;36.70;21.20;;;;;;;2.89;86.11;100369.47;4981769;28;20053;-87
2021/01/26 09:53:22;;;;;;;32.37;18.67;;;;;;;3.28;83.53;100363.56;4996431;28;20042;-91
2021/01/26 09:55:53;;;;;;;30.90;19.07;;;;;;;3.44;82.29;100369.72;4991208;28;20414;-90
2021/01/26 09:58:20;;;;;;;32.90;20.10;;;;;;;3.91;81.62;100369.88;4995498;28;20061;-90
2021/01/26 10:00:48;;;;;;;30.00;18.27;;;;;;;4.57;82.91;100373.41;4993358;28;20057;-90
2021/01/26 10:03:19;;;;;;;35.23;19.70;;;;;;;5.19;84.29;100376.78;4994426;28;20076;-91
2021/01/26 10:05:46;;;;;;;29.80;19.30;;;;;;;5.60;79.29;100364.38;4994569;28;20053;-90
2021/01/26 10:08:26;;;;;;;34.47;20.37;;;;;;;5.15;74.14;100364.56;4978570;28;20072;-91
2021/01/26 10:10:53;;;;;;;30.73;19.50;;;;;;;4.90;74.24;100372.50;4977048;28;20037;-90
2021/01/26 10:13:21;;;;;;;30.77;18.23;;;;;;;5.14;76.08;100363.72;4994931;28;20046;-91
2021/01/26 10:15:47;;;;;;;30.60;19.63;;;;;;;5.08;76.66;100368.94;4994195;28;20049;-91
2021/01/26 10:18:17;;;;;;;29.83;19.37;;;;;;;4.68;75.69;100370.78;4979063;28;20642;-90
2021/01/26 10:20:43;;;;;;;30.20;19.00;;;;;;;4.20;74.23;100376.03;4995343;28;20518;-90
2021/01/26 10:23:24;;;;;;;29.50;18.53;;;;;;;4.15;77.48;100369.91;4995431;28;20042;-89
2021/01/26 10:25:50;;;;;;;29.73;18.57;;;;;;;4.33;79.15;100376.91;5012166;28;20136;-90
2021/01/26 10:28:24;;;;;;;31.40;19.37;;;;;;;4.39;80.05;100371.66;4979879;28;20119;-88
2021/01/26 10:30:51;;;;;;;27.83;18.00;;;;;;;4.88;79.25;100382.09;4987666;28;20103;-91
2021/01/26 10:33:40;;;;;;;30.67;19.37;;;;;;;4.42;76.27;100382.13;4983082;28;20550;-90
2021/01/26 10:36:32;;;;;;;31.57;19.43;;;;;;;4.46;77.37;100383.00;4991931;28;20510;-90
2021/01/26 10:39:13;;;;;;;31.37;19.23;;;;;;;4.29;77.32;100385.63;4989331;28;20085;-90
2021/01/26 10:41:39;;;;;;;29.73;18.47;;;;;;;4.28;78.19;100396.94;4991781;28;20044;-90
2021/01/26 10:44:11;;;;;;;31.37;18.83;;;;;;;3.97;78.10;100384.72;5008674;28;20037;-90
2021/01/26 10:46:45;;;;;;;36.40;20.90;;;;;;;3.38;78.90;100379.31;4975287;28;20046;-90
2021/01/26 10:49:33;;;;;;;37.35;21.58;;;;;;;3.21;82.02;100380.97;5007588;28;20048;-89
2021/01/26 10:52:05;;;;;;;34.03;21.00;;;;;;;4.22;79.37;100381.25;4989332;28;20402;-90
2021/01/26 10:54:33;;;;;;;33.80;20.23;;;;;;;4.11;77.32;100382.97;4971740;28;20042;-90
2021/01/26 10:56:59;;;;;;;32.30;20.03;;;;;;;3.13;80.44;100380.06;4985899;28;20048;-89
2021/01/26 10:59:25;;;;;;;35.20;18.73;;;;;;;2.80;81.46;100375.50;4971566;28;20038;-90
2021/01/26 11:01:52;;;;;;;34.83;21.60;;;;;;;2.51;83.00;100380.50;4988277;28;20049;-90
2021/01/26 11:04:19;;;;;;;32.63;19.70;;;;;;;3.39;85.96;100386.25;4989769;28;20061;-90
2021/01/26 11:06:47;;;;;;;29.70;17.93;;;;;;;5.13;76.08;100380.31;4976166;28;20052;-90
2021/01/26 11:09:14;;;;;;;29.30;17.40;;;;;;;5.95;72.28;100380.81;4977081;28;20042;-90
2021/01/26 11:11:43;;;;;;;25.00;16.27;;;;;;;5.96;67.81;100374.69;4993385;28;20042;-89
2021/01/26 11:14:11;;;;;;;30.47;18.57;;;;;;;6.55;68.52;100358.50;4975869;28;20053;-90
2021/01/26 11:16:38;;;;;;;27.67;17.07;;;;;;;7.22;69.43;100365.69;5010374;28;20056;-90
2021/01/26 11:19:05;;;;;;;28.53;19.23;;;;;;;7.22;66.58;100373.56;4974411;28;20050;-90
2021/01/26 11:21:32;;;;;;;24.13;17.13;;;;;;;7.67;67.74;100389.69;4977787;28;20052;-91
2021/01/26 11:23:59;;;;;;;27.08;19.23;;;;;;;7.56;62.56;100389.78;4991294;28;20080;-90
2021/01/26 11:26:25;;;;;;;26.00;17.38;;;;;;;7.13;62.85;100383.31;4976317;28;20045;-90
2021/01/26 11:28:52;;;;;;;24.65;17.08;;;;;;;7.08;65.21;100395.66;4990209;28;20054;-90
2021/01/26 11:31:19;;;;;;;29.15;18.00;;;;;;;6.69;66.61;100403.00;4976557;28;20042;-89
2021/01/26 11:33:46;;;;;;;25.15;17.30;;;;;;;6.61;66.49;100403.06;4976087;28;20451;-88
2021/01/26 11:36:13;;;;;;;27.90;19.15;;;;;;;5.45;73.07;100415.97;4991030;28;20104;-90
2021/01/26 11:38:40;;;;;;;31.33;19.87;;;;;;;4.79;73.11;100421.34;4975368;28;20046;-90